createdAt,value
2023-03-02T00:01:50.719Z,36.65
2023-03-02T00:04:21.947Z,34.10
2023-03-02T00:06:52.491Z,35.03
2023-03-02T00:09:20.876Z,34.97
2023-03-02T00:11:49.394Z,34.05
2023-03-02T00:14:17.547Z,35.70
2023-03-02T00:16:47.216Z,33.95
2023-03-02T00:19:15.409Z,36.63
2023-03-02T00:21:43.709Z,34.22
2023-03-02T00:24:15.489Z,36.47
2023-03-02T00:26:43.925Z,35.67
2023-03-02T00:29:12.801Z,36.30
2023-03-02T00:31:41.208Z,36.78
2023-03-02T00:34:10.980Z,36.00
2023-03-02T00:36:40.044Z,37.17
2023-03-02T00:39:08.614Z,35.22
2023-03-02T00:41:36.885Z,32.97
2023-03-02T00:44:05.416Z,31.35
2023-03-02T00:46:34.062Z,28.67
2023-03-02T00:49:02.611Z,30.63
2023-03-02T00:51:32.329Z,31.42
2023-03-02T00:54:02.697Z,30.48
2023-03-02T00:56:31.313Z,32.15
2023-03-02T00:58:59.854Z,30.75
2023-03-02T01:01:28.295Z,31.75
2023-03-02T01:03:56.616Z,33.25
2023-03-02T01:06:24.887Z,32.63
2023-03-02T01:08:54.541Z,35.03
2023-03-02T01:11:24.684Z,33.13
2023-03-02T01:13:52.995Z,33.47
2023-03-02T01:16:21.283Z,33.78
2023-03-02T01:18:49.634Z,35.55
2023-03-02T01:21:17.950Z,33.47
2023-03-02T01:23:46.202Z,35.45
2023-03-02T01:26:15.961Z,34.63
2023-03-02T01:28:44.202Z,34.25
2023-03-02T01:31:12.810Z,32.58
2023-03-02T01:33:41.113Z,31.77
2023-03-02T01:36:09.888Z,28.92
2023-03-02T01:38:38.305Z,30.02
2023-03-02T01:41:06.850Z,29.13
2023-03-02T01:43:36.888Z,31.25
2023-03-02T01:46:08.260Z,31.60
2023-03-02T01:48:48.020Z,32.33
2023-03-02T01:51:24.005Z,31.55
2023-03-02T01:53:56.659Z,32.55
2023-03-02T01:56:31.031Z,32.17
2023-03-02T01:59:06.821Z,34.22
2023-03-02T02:01:38.290Z,32.65
2023-03-02T02:04:07.597Z,34.80
2023-03-02T02:06:39.507Z,35.38
2023-03-02T02:09:11.624Z,40.97
2023-03-02T02:11:40.067Z,43.83
2023-03-02T02:14:09.847Z,44.80
2023-03-02T02:16:39.349Z,41.03
2023-03-02T02:19:13.429Z,45.28
2023-03-02T02:21:41.977Z,49.80
2023-03-02T02:24:13.999Z,52.15
2023-03-02T02:26:47.091Z,51.35
2023-03-02T02:29:22.666Z,56.22
2023-03-02T02:31:57.354Z,58.70
2023-03-02T02:34:28.678Z,60.95
2023-03-02T02:37:01.924Z,62.20
2023-03-02T02:39:35.186Z,60.35
2023-03-02T02:42:08.523Z,57.78
2023-03-02T02:44:37.026Z,55.33
2023-03-02T02:47:07.180Z,50.00
2023-03-02T02:49:39.503Z,45.85
2023-03-02T02:52:08.639Z,43.35
2023-03-02T02:54:38.635Z,41.47
2023-03-02T02:57:08.996Z,44.80
2023-03-02T02:59:42.579Z,41.75
2023-03-02T03:02:19.531Z,39.70
2023-03-02T03:04:48.201Z,40.00
2023-03-02T03:07:21.234Z,40.58
2023-03-02T03:09:56.778Z,40.42
2023-03-02T03:12:28.061Z,38.95
2023-03-02T03:14:57.149Z,40.35
2023-03-02T03:17:25.403Z,42.28
2023-03-02T03:20:06.173Z,39.85
2023-03-02T03:22:38.713Z,38.13
2023-03-02T03:25:09.823Z,36.35
2023-03-02T03:27:39.668Z,36.88
2023-03-02T03:30:08.937Z,37.97
2023-03-02T03:32:37.817Z,39.45
2023-03-02T03:35:08.843Z,34.17
2023-03-02T03:37:37.861Z,38.65
2023-03-02T03:40:09.619Z,37.13
2023-03-02T03:42:41.213Z,38.83
2023-03-02T03:45:10.115Z,38.05
2023-03-02T03:47:40.236Z,39.80
2023-03-02T03:50:11.224Z,41.75
2023-03-02T03:52:41.446Z,38.85
2023-03-02T03:55:30.220Z,38.45
2023-03-02T03:58:00.606Z,36.00
2023-03-02T04:00:29.058Z,36.75
2023-03-02T04:03:03.828Z,38.38
2023-03-02T04:05:33.936Z,39.22
2023-03-02T04:08:04.264Z,39.47
2023-03-02T04:10:33.379Z,38.38
2023-03-02T04:13:04.533Z,44.45
2023-03-02T04:15:33.022Z,39.78
2023-03-02T04:18:01.909Z,40.03
2023-03-02T04:20:31.810Z,41.00
2023-03-02T04:23:00.825Z,45.55
2023-03-02T04:25:30.672Z,46.05
2023-03-02T04:28:11.770Z,44.40
2023-03-02T04:30:41.850Z,41.80
2023-03-02T04:33:10.445Z,43.22
2023-03-02T04:35:38.862Z,44.22
2023-03-02T04:38:07.338Z,45.92
2023-03-02T04:40:35.779Z,46.88
2023-03-02T04:43:04.029Z,47.50
2023-03-02T04:45:33.668Z,48.35
2023-03-02T04:48:02.002Z,47.13
2023-03-02T04:50:30.211Z,48.03
2023-03-02T04:52:58.457Z,46.70
2023-03-02T04:55:28.103Z,50.80
2023-03-02T04:57:56.407Z,48.22
2023-03-02T05:00:25.220Z,50.85
2023-03-02T05:02:54.918Z,49.15
2023-03-02T05:05:25.305Z,49.13
2023-03-02T05:07:54.232Z,48.22
2023-03-02T05:10:25.083Z,47.88
2023-03-02T05:12:58.225Z,46.78
2023-03-02T05:15:29.572Z,46.13
2023-03-02T05:17:59.534Z,48.70
2023-03-02T05:20:30.303Z,47.25
2023-03-02T05:23:00.474Z,48.13
2023-03-02T05:25:31.141Z,46.35
2023-03-02T05:27:59.513Z,51.30
2023-03-02T05:30:28.564Z,49.88
2023-03-02T05:32:58.552Z,49.35
2023-03-02T05:35:27.413Z,47.38
2023-03-02T05:37:55.779Z,45.33
2023-03-02T05:40:24.098Z,47.60
2023-03-02T05:42:52.421Z,45.33
2023-03-02T05:45:24.063Z,46.28
2023-03-02T05:47:52.694Z,45.35
2023-03-02T05:50:22.630Z,44.42
2023-03-02T05:52:51.282Z,42.85
2023-03-02T05:55:20.744Z,42.20
2023-03-02T05:57:49.803Z,42.17
2023-03-02T06:00:19.460Z,41.67
2023-03-02T06:02:48.120Z,41.33
2023-03-02T06:05:18.732Z,43.03
2023-03-02T06:07:48.507Z,39.50
2023-03-02T06:10:16.886Z,42.00
2023-03-02T06:12:45.276Z,40.70
2023-03-02T06:15:22.010Z,41.45
2023-03-02T06:17:50.610Z,40.33
2023-03-02T06:20:19.318Z,41.92
2023-03-02T06:22:49.108Z,43.42
2023-03-02T06:25:19.561Z,42.42
2023-03-02T06:27:51.064Z,43.20
2023-03-02T06:30:21.252Z,40.35
2023-03-02T06:32:49.565Z,41.85
2023-03-02T06:35:19.245Z,40.47
2023-03-02T06:37:49.105Z,41.60
2023-03-02T06:40:17.446Z,40.35
2023-03-02T06:42:46.133Z,40.70
2023-03-02T06:45:14.468Z,40.83
2023-03-02T06:47:42.748Z,40.72
2023-03-02T06:50:12.386Z,40.63
2023-03-02T06:52:40.688Z,39.28
2023-03-02T06:55:11.313Z,40.78
2023-03-02T06:57:39.640Z,43.00
2023-03-02T07:00:11.415Z,40.95
2023-03-02T07:02:39.724Z,39.72
2023-03-02T07:05:08.998Z,41.00
2023-03-02T07:07:37.302Z,39.92
2023-03-02T07:10:06.436Z,39.55
2023-03-02T07:12:36.066Z,38.50
2023-03-02T07:15:05.406Z,41.65
2023-03-02T07:17:35.383Z,39.35
2023-03-02T07:20:05.270Z,38.60
2023-03-02T07:22:34.179Z,38.13
2023-03-02T07:25:02.463Z,37.90
2023-03-02T07:27:31.079Z,38.13
2023-03-02T07:30:00.727Z,36.35
2023-03-02T07:32:29.285Z,39.35
2023-03-02T07:34:57.605Z,38.67
2023-03-02T07:37:25.971Z,38.30
2023-03-02T07:39:54.247Z,35.63
2023-03-02T07:42:22.728Z,36.40
2023-03-02T07:44:56.127Z,34.75
2023-03-02T07:47:26.328Z,36.83
2023-03-02T07:49:54.625Z,38.38
2023-03-02T07:52:22.906Z,35.03
2023-03-02T07:54:51.544Z,35.67
2023-03-02T07:57:19.870Z,36.33
2023-03-02T07:59:48.080Z,38.17
2023-03-02T08:02:18.288Z,36.70
2023-03-02T08:04:48.078Z,35.95
2023-03-02T08:07:16.289Z,32.88
2023-03-02T08:09:44.680Z,33.30
2023-03-02T08:12:13.029Z,33.58
2023-03-02T08:14:41.427Z,32.35
2023-03-02T08:17:10.183Z,33.75
2023-03-02T08:19:38.503Z,33.22
2023-03-02T08:22:08.184Z,32.40
2023-03-02T08:24:36.445Z,34.25
2023-03-02T08:27:05.574Z,35.45
2023-03-02T08:29:33.982Z,37.58
2023-03-02T08:32:02.377Z,36.95
2023-03-02T08:34:30.690Z,35.80
2023-03-02T08:36:58.927Z,37.25
2023-03-02T08:39:30.486Z,34.95
2023-03-02T08:41:59.894Z,35.65
2023-03-02T08:44:28.245Z,33.33
2023-03-02T08:46:56.506Z,35.97
2023-03-02T08:49:24.785Z,36.30
2023-03-02T08:51:56.340Z,33.70
2023-03-02T08:54:24.764Z,32.17
2023-03-02T08:56:54.482Z,31.33
2023-03-02T08:59:22.867Z,30.33
2023-03-02T09:01:51.179Z,33.53
2023-03-02T09:04:19.479Z,31.00
2023-03-02T09:06:47.793Z,36.08
2023-03-02T09:09:16.615Z,34.65
2023-03-02T09:11:46.521Z,33.50
2023-03-02T09:14:16.314Z,31.23
2023-03-02T09:16:45.445Z,30.23
2023-03-02T09:19:15.037Z,29.02
2023-03-02T09:21:43.294Z,28.13
2023-03-02T09:24:11.680Z,26.60
2023-03-02T09:26:40.315Z,26.25
2023-03-02T09:29:08.921Z,24.92
2023-03-02T09:31:39.192Z,22.98
2023-03-02T09:34:08.276Z,20.58
2023-03-02T09:36:36.716Z,22.77
2023-03-02T09:39:09.381Z,20.27
2023-03-02T09:42:18.447Z,20.90
2023-03-02T09:45:10.193Z,19.27
2023-03-02T09:47:48.191Z,19.58
2023-03-02T09:50:32.547Z,23.13
2023-03-02T09:53:19.644Z,19.65
2023-03-02T09:55:52.730Z,22.75
2023-03-02T09:58:22.948Z,21.17
2023-03-02T10:00:52.976Z,25.27
2023-03-02T10:03:27.213Z,25.63
2023-03-02T10:05:56.714Z,25.10
2023-03-02T10:08:27.232Z,23.58
2023-03-02T10:11:01.178Z,21.80
2023-03-02T10:13:32.256Z,21.85
2023-03-02T10:16:14.778Z,20.05
2023-03-02T10:18:47.981Z,21.58
2023-03-02T10:21:24.116Z,19.15
2023-03-02T10:23:57.718Z,19.27
2023-03-02T10:26:39.711Z,18.20
2023-03-02T10:29:42.424Z,17.08
2023-03-02T10:32:19.740Z,16.23
2023-03-02T10:34:50.193Z,15.65
2023-03-02T10:37:21.725Z,13.50
2023-03-02T10:39:50.438Z,13.10
2023-03-02T10:42:22.854Z,13.40
2023-03-02T10:44:53.878Z,15.80
2023-03-02T10:47:25.152Z,13.95
2023-03-02T10:49:55.813Z,16.52
2023-03-02T10:52:25.490Z,16.92
2023-03-02T10:55:03.719Z,16.50
2023-03-02T10:57:37.454Z,18.58
2023-03-02T11:00:16.897Z,19.55
2023-03-02T11:02:56.377Z,18.10
2023-03-02T11:05:34.843Z,14.13
2023-03-02T11:08:05.052Z,14.45
2023-03-02T11:10:36.620Z,14.80
2023-03-02T11:13:17.730Z,12.15
2023-03-02T11:15:49.371Z,12.85
2023-03-02T11:18:25.898Z,12.98
2023-03-02T11:20:59.946Z,14.13
2023-03-02T11:23:36.224Z,12.40
2023-03-02T11:26:11.565Z,12.45
2023-03-02T11:28:47.186Z,12.13
2023-03-02T11:31:23.706Z,12.65
2023-03-02T11:34:16.723Z,12.23
2023-03-02T11:36:59.231Z,12.63
2023-03-02T11:39:46.569Z,12.02
2023-03-02T11:42:30.866Z,12.52
2023-03-02T11:45:04.687Z,12.52
2023-03-02T11:47:34.857Z,12.68
2023-03-02T11:50:06.288Z,13.75
2023-03-02T11:52:43.031Z,13.02
2023-03-02T11:55:19.249Z,13.70
2023-03-02T11:57:51.844Z,13.05
2023-03-02T12:00:31.290Z,13.48
2023-03-02T12:03:04.515Z,13.07
2023-03-02T12:05:35.715Z,13.50
2023-03-02T12:08:08.311Z,12.32
2023-03-02T12:10:39.891Z,12.73
2023-03-02T12:13:18.568Z,12.88
2023-03-02T12:15:48.162Z,13.45
2023-03-02T12:18:45.160Z,13.13
2023-03-02T12:21:17.358Z,12.55
2023-03-02T12:24:03.882Z,12.35
2023-03-02T12:26:36.258Z,11.27
2023-03-02T12:29:22.688Z,12.60
2023-03-02T12:31:53.735Z,11.88
2023-03-02T12:34:37.354Z,12.00
2023-03-02T12:37:14.466Z,13.18
2023-03-02T12:40:03.230Z,14.00
2023-03-02T12:43:02.596Z,12.32
2023-03-02T12:45:45.167Z,12.40
2023-03-02T12:48:25.746Z,11.60
2023-03-02T12:51:00.412Z,11.75
2023-03-02T12:53:28.989Z,11.75
2023-03-02T12:55:59.106Z,12.10
2023-03-02T12:58:30.157Z,17.23
2023-03-02T13:00:59.982Z,17.95
2023-03-02T13:03:31.506Z,19.73
2023-03-02T13:06:04.597Z,16.00
2023-03-02T13:08:33.722Z,12.15
2023-03-02T13:11:04.413Z,13.25
2023-03-02T13:13:39.585Z,11.85
2023-03-02T13:16:20.021Z,12.60
2023-03-02T13:18:49.959Z,11.27
2023-03-02T13:21:20.147Z,9.68
2023-03-02T13:23:51.872Z,11.80
2023-03-02T13:26:29.319Z,11.27
2023-03-02T13:29:06.406Z,11.15
2023-03-02T13:31:36.160Z,11.65
2023-03-02T13:34:04.564Z,11.35
2023-03-02T13:36:37.606Z,11.60
2023-03-02T13:39:09.322Z,11.90
2023-03-02T13:41:40.726Z,11.57
2023-03-02T13:44:20.930Z,11.43
2023-03-02T13:46:49.739Z,11.18
2023-03-02T13:49:28.501Z,10.63
2023-03-02T13:52:05.872Z,10.10
2023-03-02T13:54:37.781Z,11.70
2023-03-02T13:57:08.088Z,11.88
2023-03-02T13:59:37.536Z,10.90
2023-03-02T14:02:21.118Z,12.23
2023-03-02T14:04:49.539Z,12.13
2023-03-02T14:07:18.664Z,11.13
2023-03-02T14:09:47.152Z,12.25
2023-03-02T14:12:25.755Z,11.20
2023-03-02T14:14:55.822Z,11.02
2023-03-02T14:17:25.913Z,10.07
2023-03-02T14:19:55.404Z,11.10
2023-03-02T14:22:26.465Z,10.98
2023-03-02T14:24:56.149Z,11.68
2023-03-02T14:27:30.768Z,11.05
2023-03-02T14:30:00.027Z,11.82
2023-03-02T14:32:28.601Z,12.60
2023-03-02T14:34:57.029Z,13.20
2023-03-02T14:37:29.169Z,12.23
2023-03-02T14:39:58.917Z,11.65
2023-03-02T14:42:28.695Z,11.65
2023-03-02T14:44:57.648Z,12.40
2023-03-02T14:47:26.975Z,13.02
2023-03-02T14:49:55.500Z,12.90
2023-03-02T14:52:31.003Z,13.00
2023-03-02T14:55:02.788Z,13.82
2023-03-02T14:57:37.681Z,12.80
2023-03-02T15:00:07.995Z,12.57
2023-03-02T15:02:36.536Z,13.30
2023-03-02T15:05:06.906Z,14.10
2023-03-02T15:07:35.250Z,13.00
2023-03-02T15:10:06.558Z,14.13
2023-03-02T15:12:39.277Z,13.18
2023-03-02T15:15:14.251Z,14.65
2023-03-02T15:17:43.016Z,13.40
2023-03-02T15:20:16.260Z,14.80
2023-03-02T15:22:44.905Z,14.07
2023-03-02T15:25:13.682Z,14.65
2023-03-02T15:27:43.756Z,16.25
2023-03-02T15:30:13.274Z,15.48
2023-03-02T15:32:41.802Z,15.05
2023-03-02T15:35:12.452Z,14.90
2023-03-02T15:37:41.099Z,14.82
2023-03-02T15:40:11.176Z,14.77
2023-03-02T15:42:39.535Z,15.10
2023-03-02T15:45:09.934Z,14.25
2023-03-02T15:47:38.799Z,15.00
2023-03-02T15:50:08.092Z,16.33
2023-03-02T15:52:36.604Z,16.73
2023-03-02T15:55:07.483Z,15.25
2023-03-02T15:57:40.558Z,15.93
2023-03-02T16:00:13.609Z,15.35
2023-03-02T16:02:44.983Z,14.55
2023-03-02T16:05:17.465Z,12.80
2023-03-02T16:07:45.989Z,14.60
2023-03-02T16:10:16.544Z,14.82
2023-03-02T16:12:45.318Z,13.95
2023-03-02T16:15:17.162Z,14.88
2023-03-02T16:17:45.534Z,15.50
2023-03-02T16:20:14.419Z,16.67
2023-03-02T16:22:42.869Z,14.55
2023-03-02T16:25:11.444Z,15.18
2023-03-02T16:27:39.683Z,15.95
2023-03-02T16:30:09.374Z,14.88
2023-03-02T16:32:39.219Z,16.23
2023-03-02T16:35:09.940Z,14.73
2023-03-02T16:37:38.334Z,14.98
2023-03-02T16:40:08.068Z,15.05
2023-03-02T16:42:36.494Z,15.60
2023-03-02T16:45:05.160Z,16.05
2023-03-02T16:47:34.676Z,15.55
2023-03-02T16:50:05.015Z,16.67
2023-03-02T16:52:33.605Z,16.05
2023-03-02T16:55:02.379Z,15.90
2023-03-02T16:57:30.723Z,16.48
2023-03-02T16:59:59.690Z,15.60
2023-03-02T17:02:29.270Z,17.10
2023-03-02T17:04:57.963Z,16.27
2023-03-02T17:07:27.625Z,17.13
2023-03-02T17:09:55.827Z,15.10
2023-03-02T17:12:24.109Z,14.35
2023-03-02T17:14:52.445Z,14.57
2023-03-02T17:17:23.807Z,13.68
2023-03-02T17:19:52.279Z,14.75
2023-03-02T17:22:20.604Z,15.85
2023-03-02T17:24:50.323Z,13.38
2023-03-02T17:27:25.450Z,14.02
2023-03-02T17:29:54.880Z,15.07
2023-03-02T17:32:24.196Z,15.18
2023-03-02T17:34:52.523Z,13.55
2023-03-02T17:37:21.009Z,14.52
2023-03-02T17:39:52.062Z,13.38
2023-03-02T17:42:20.469Z,14.75
2023-03-02T17:44:48.738Z,14.82
2023-03-02T17:47:17.296Z,15.63
2023-03-02T17:49:46.317Z,15.82
2023-03-02T17:52:15.347Z,15.80
2023-03-02T17:54:44.157Z,14.25
2023-03-02T17:57:14.122Z,15.27
2023-03-02T17:59:45.972Z,16.23
2023-03-02T18:02:14.177Z,18.20
2023-03-02T18:04:42.439Z,17.73
2023-03-02T18:07:10.971Z,19.80
2023-03-02T18:09:39.263Z,20.95
2023-03-02T18:12:08.740Z,21.95
2023-03-02T18:14:39.356Z,23.50
2023-03-02T18:17:09.342Z,20.38
2023-03-02T18:19:38.137Z,20.23
2023-03-02T18:22:06.487Z,21.23
2023-03-02T18:24:34.756Z,20.20
2023-03-02T18:27:03.088Z,19.30
2023-03-02T18:29:32.727Z,19.42
2023-03-02T18:32:02.645Z,18.73
2023-03-02T18:34:31.088Z,21.92
2023-03-02T18:36:59.472Z,19.38
2023-03-02T18:39:28.039Z,22.80
2023-03-02T18:41:56.332Z,23.70
2023-03-02T18:44:28.115Z,23.67
2023-03-02T18:46:56.804Z,20.75
2023-03-02T18:49:27.500Z,20.20
2023-03-02T18:51:56.800Z,18.92
2023-03-02T18:54:25.558Z,19.63
2023-03-02T18:56:53.855Z,18.15
2023-03-02T18:59:22.226Z,18.48
2023-03-02T19:01:50.488Z,17.42
2023-03-02T19:04:18.814Z,18.33
2023-03-02T19:06:49.866Z,18.83
2023-03-02T19:09:18.127Z,19.83
2023-03-02T19:11:46.480Z,20.30
2023-03-02T19:14:14.871Z,18.60
2023-03-02T19:16:43.137Z,19.15
2023-03-02T19:19:11.532Z,17.85
2023-03-02T19:21:39.852Z,19.20
2023-03-02T19:24:10.032Z,20.63
2023-03-02T19:26:38.416Z,20.58
2023-03-02T19:29:06.722Z,23.35
2023-03-02T19:31:35.091Z,23.08
2023-03-02T19:34:06.521Z,25.55
2023-03-02T19:36:34.802Z,26.25
2023-03-02T19:39:03.054Z,24.50
2023-03-02T19:41:32.847Z,29.48
2023-03-02T19:44:02.008Z,34.55
2023-03-02T19:46:30.192Z,32.53
2023-03-02T19:48:58.486Z,34.70
2023-03-02T19:51:26.972Z,37.50
2023-03-02T19:53:55.278Z,35.83
2023-03-02T19:56:26.858Z,35.72
2023-03-02T19:58:56.509Z,36.80
2023-03-02T20:01:27.907Z,35.13
2023-03-02T20:03:57.881Z,34.10
2023-03-02T20:06:30.474Z,34.58
2023-03-02T20:09:00.671Z,34.88
2023-03-02T20:11:30.780Z,33.38
2023-03-02T20:14:02.188Z,34.15
2023-03-02T20:16:31.251Z,34.25
2023-03-02T20:19:02.024Z,32.63
2023-03-02T20:21:30.443Z,34.25
2023-03-02T20:23:58.701Z,31.80
2023-03-02T20:26:27.753Z,30.38
2023-03-02T20:28:57.012Z,30.17
2023-03-02T20:31:26.918Z,29.88
2023-03-02T20:33:56.866Z,30.38
2023-03-02T20:36:29.497Z,30.77
2023-03-02T20:39:01.479Z,32.17
2023-03-02T20:41:30.259Z,28.83
2023-03-02T20:43:58.596Z,27.63
2023-03-02T20:46:33.101Z,23.25
2023-03-02T20:49:02.170Z,22.95
2023-03-02T20:51:30.698Z,22.73
2023-03-02T20:53:59.896Z,23.38
2023-03-02T20:56:28.185Z,23.20
2023-03-02T20:58:56.548Z,24.88
2023-03-02T21:01:25.335Z,27.15
2023-03-02T21:03:55.155Z,26.33
2023-03-02T21:06:23.572Z,24.58
2023-03-02T21:08:52.584Z,51.13
2023-03-02T21:11:22.797Z,29.05
2023-03-02T21:13:51.100Z,25.02
2023-03-02T21:16:21.958Z,24.42
2023-03-02T21:18:50.386Z,24.70
2023-03-02T21:21:27.220Z,25.67
2023-03-02T21:24:04.328Z,27.77
2023-03-02T21:26:32.642Z,29.13
2023-03-02T21:29:01.149Z,29.08
2023-03-02T21:31:29.663Z,30.13
2023-03-02T21:33:58.106Z,30.15
2023-03-02T21:36:28.334Z,33.30
2023-03-02T21:38:56.799Z,31.35
2023-03-02T21:41:27.485Z,31.25
2023-03-02T21:43:55.790Z,30.40
2023-03-02T21:46:24.674Z,30.73
2023-03-02T21:48:54.527Z,30.40
2023-03-02T21:51:22.927Z,30.58
2023-03-02T21:53:55.625Z,31.80
2023-03-02T21:56:26.247Z,30.30
2023-03-02T21:58:56.009Z,32.45
2023-03-02T22:01:25.083Z,31.33
2023-03-02T22:03:53.515Z,33.20
2023-03-02T22:06:24.423Z,32.80
2023-03-02T22:08:55.706Z,34.25
2023-03-02T22:11:26.405Z,34.72
2023-03-02T22:13:57.546Z,34.40
2023-03-02T22:16:27.427Z,32.45
2023-03-02T22:18:57.478Z,36.92
2023-03-02T22:21:30.930Z,34.45
2023-03-02T22:24:19.068Z,36.20
2023-03-02T22:26:48.850Z,36.08
2023-03-02T22:29:19.195Z,37.60
2023-03-02T22:31:50.642Z,36.67
2023-03-02T22:34:23.805Z,35.70
2023-03-02T22:36:52.028Z,34.85
2023-03-02T22:39:28.580Z,36.78
2023-03-02T22:42:06.319Z,37.22
2023-03-02T22:44:34.701Z,38.88
2023-03-02T22:47:06.914Z,35.38
2023-03-02T22:49:35.180Z,34.83
2023-03-02T22:52:12.502Z,35.33
2023-03-02T22:54:42.298Z,33.25
2023-03-02T22:57:25.964Z,31.65
2023-03-02T23:00:35.921Z,30.95
2023-03-02T23:03:17.258Z,32.20
2023-03-02T23:05:49.107Z,31.95
2023-03-02T23:08:22.331Z,31.38
2023-03-02T23:10:57.638Z,33.65
2023-03-02T23:13:31.612Z,32.67
2023-03-02T23:16:00.538Z,33.00
2023-03-02T23:18:30.767Z,37.53
2023-03-02T23:20:58.988Z,34.38
2023-03-02T23:23:28.428Z,37.30
2023-03-02T23:25:58.151Z,36.15
2023-03-02T23:28:27.081Z,37.72
2023-03-02T23:30:55.373Z,37.97
2023-03-02T23:33:23.648Z,35.58
2023-03-02T23:35:52.328Z,35.83
2023-03-02T23:38:20.614Z,33.35
2023-03-02T23:40:49.045Z,36.45
2023-03-02T23:43:18.748Z,34.20
2023-03-02T23:45:47.390Z,36.22
2023-03-02T23:48:16.625Z,36.28
2023-03-02T23:50:45.645Z,34.90
2023-03-02T23:53:14.694Z,36.08
2023-03-02T23:55:47.929Z,35.42
2023-03-02T23:58:16.226Z,35.13
